createdAt,value
2022-08-05T00:00:21.980Z,32.20
2022-08-05T00:02:52.416Z,26.70
2022-08-05T00:06:02.133Z,23.63
2022-08-05T00:08:32.827Z,27.30
2022-08-05T00:11:23.932Z,19.17
2022-08-05T00:13:57.803Z,25.23
2022-08-05T00:16:35.443Z,25.83
2022-08-05T00:19:07.548Z,38.00
2022-08-05T00:21:37.483Z,30.40
2022-08-05T00:24:16.164Z,41.73
2022-08-05T00:26:50.865Z,30.20
2022-08-05T00:29:22.714Z,27.57
2022-08-05T00:32:12.634Z,26.03
2022-08-05T00:35:04.759Z,30.77
2022-08-05T00:37:35.856Z,25.83
2022-08-05T00:40:29.345Z,30.67
2022-08-05T00:43:00.704Z,26.30
2022-08-05T00:45:38.547Z,31.53
2022-08-05T00:48:10.756Z,27.33
2022-08-05T00:50:44.165Z,39.23
2022-08-05T00:54:00.820Z,34.27
2022-08-05T00:56:09.250Z,26.33
2022-08-05T00:58:42.406Z,28.73
2022-08-05T01:01:16.232Z,31.57
2022-08-05T01:04:14.175Z,37.60
2022-08-05T01:06:48.525Z,26.63
2022-08-05T01:09:19.973Z,32.40
2022-08-05T01:11:56.364Z,49.97
2022-08-05T01:14:33.385Z,41.40
2022-08-05T01:17:07.827Z,39.70
2022-08-05T01:20:00.754Z,43.70
2022-08-05T01:22:46.955Z,36.80
2022-08-05T01:25:53.204Z,35.37
2022-08-05T01:28:39.511Z,32.70
2022-08-05T01:31:13.619Z,30.90
2022-08-05T01:33:57.463Z,27.43
2022-08-05T01:36:34.093Z,34.87
2022-08-05T01:39:04.921Z,37.63
2022-08-05T01:41:40.331Z,39.00
2022-08-05T01:44:18.241Z,45.97
2022-08-05T01:46:49.074Z,43.00
2022-08-05T01:49:25.921Z,38.70
2022-08-05T01:52:17.882Z,30.90
2022-08-05T01:54:52.753Z,39.60
2022-08-05T01:58:10.297Z,38.30
2022-08-05T02:00:30.511Z,34.87
2022-08-05T02:03:06.732Z,35.17
2022-08-05T02:05:59.800Z,47.73
2022-08-05T02:08:33.368Z,34.30
2022-08-05T02:11:11.758Z,36.90
2022-08-05T02:13:53.674Z,35.03
2022-08-05T02:16:29.981Z,30.83
2022-08-05T02:19:07.232Z,39.53
2022-08-05T02:21:46.653Z,24.67
2022-08-05T02:24:23.454Z,30.10
2022-08-05T02:26:57.809Z,30.77
2022-08-05T02:29:59.724Z,31.13
2022-08-05T02:32:30.564Z,32.00
2022-08-05T02:35:13.685Z,40.77
2022-08-05T02:37:47.794Z,38.20
2022-08-05T02:40:26.121Z,33.73
2022-08-05T02:42:59.164Z,55.90
2022-08-05T02:45:51.520Z,32.43
2022-08-05T02:48:29.517Z,30.00
2022-08-05T02:51:01.453Z,37.33
2022-08-05T02:53:39.480Z,33.30
2022-08-05T02:56:16.098Z,30.17
2022-08-05T02:58:52.643Z,37.33
2022-08-05T03:01:26.986Z,32.27
2022-08-05T03:04:11.988Z,36.50
2022-08-05T03:06:55.815Z,42.30
2022-08-05T03:09:38.181Z,39.77
2022-08-05T03:12:09.726Z,35.40
2022-08-05T03:14:46.117Z,36.23
2022-08-05T03:17:17.776Z,37.47
2022-08-05T03:19:52.541Z,37.73
2022-08-05T03:22:31.888Z,39.73
2022-08-05T03:25:34.014Z,38.33
2022-08-05T03:27:59.980Z,36.07
2022-08-05T03:30:34.217Z,28.07
2022-08-05T03:33:05.945Z,36.80
2022-08-05T03:35:40.945Z,35.30
2022-08-05T03:38:14.412Z,55.97
2022-08-05T03:40:45.158Z,40.90
2022-08-05T03:44:08.433Z,32.30
2022-08-05T03:46:08.443Z,42.20
2022-08-05T03:48:38.161Z,33.67
2022-08-05T03:52:35.120Z,26.73
2022-08-05T03:55:51.092Z,35.90
2022-08-05T03:57:02.362Z,37.50
2022-08-05T03:59:54.982Z,37.53
2022-08-05T04:02:39.140Z,34.23
2022-08-05T04:05:19.736Z,34.17
2022-08-05T04:07:57.978Z,35.17
2022-08-05T04:10:37.136Z,39.87
2022-08-05T04:13:09.176Z,40.97
2022-08-05T04:15:39.455Z,37.50
2022-08-05T04:18:29.542Z,37.50
2022-08-05T04:21:00.876Z,33.10
2022-08-05T04:23:58.368Z,33.97
2022-08-05T04:26:23.669Z,32.67
2022-08-05T04:28:53.443Z,41.00
2022-08-05T04:31:23.513Z,31.37
2022-08-05T04:34:31.522Z,45.20
2022-08-05T04:36:50.052Z,36.27
2022-08-05T04:39:23.554Z,32.53
2022-08-05T04:41:53.783Z,26.97
2022-08-05T04:44:30.111Z,35.37
2022-08-05T04:47:09.589Z,38.23
2022-08-05T04:50:01.413Z,34.43
2022-08-05T04:52:33.362Z,26.73
2022-08-05T04:55:14.981Z,23.87
2022-08-05T04:57:51.664Z,29.50
2022-08-05T05:00:24.321Z,25.73
2022-08-05T05:02:54.492Z,39.37
2022-08-05T05:05:28.585Z,24.60
2022-08-05T05:08:03.301Z,34.20
2022-08-05T05:10:42.240Z,29.73
2022-08-05T05:13:25.792Z,24.77
2022-08-05T05:16:05.913Z,23.33
2022-08-05T05:18:37.928Z,21.67
2022-08-05T05:21:07.927Z,19.53
2022-08-05T05:24:04.100Z,21.27
2022-08-05T05:26:33.883Z,20.00
2022-08-05T05:29:14.313Z,16.87
2022-08-05T05:31:46.483Z,18.37
2022-08-05T05:34:21.168Z,23.80
2022-08-05T05:36:53.682Z,20.23
2022-08-05T05:39:24.943Z,27.10
2022-08-05T05:42:04.077Z,20.60
2022-08-05T05:44:37.543Z,18.37
2022-08-05T05:47:21.590Z,17.20
2022-08-05T05:50:01.450Z,15.40
2022-08-05T05:52:34.733Z,14.33
2022-08-05T05:55:13.887Z,17.73
2022-08-05T05:57:52.122Z,21.70
2022-08-05T06:00:31.490Z,12.40
2022-08-05T06:03:39.695Z,14.77
2022-08-05T06:05:55.669Z,16.67
2022-08-05T06:08:32.253Z,11.53
2022-08-05T06:11:04.050Z,14.30
2022-08-05T06:13:40.531Z,16.10
2022-08-05T06:16:30.493Z,12.20
2022-08-05T06:19:05.773Z,17.43
2022-08-05T06:21:38.842Z,10.63
2022-08-05T06:24:14.740Z,21.60
2022-08-05T06:26:51.571Z,17.00
2022-08-05T06:29:48.914Z,24.77
2022-08-05T06:32:21.468Z,20.33
2022-08-05T06:34:58.518Z,14.70
2022-08-05T06:37:57.728Z,17.97
2022-08-05T06:40:27.884Z,26.00
2022-08-05T06:43:02.326Z,22.40
2022-08-05T06:45:44.981Z,21.67
2022-08-05T06:48:52.920Z,16.43
2022-08-05T06:51:26.738Z,15.60
2022-08-05T06:54:01.926Z,15.27
2022-08-05T06:56:34.319Z,11.37
2022-08-05T06:59:08.323Z,13.03
2022-08-05T07:01:47.453Z,10.97
2022-08-05T07:04:23.977Z,16.93
2022-08-05T07:06:57.119Z,9.63
2022-08-05T07:09:32.192Z,9.60
2022-08-05T07:12:02.622Z,14.73
2022-08-05T07:14:46.109Z,18.77
2022-08-05T07:18:09.381Z,12.27
2022-08-05T07:20:32.301Z,13.43
2022-08-05T07:23:01.495Z,16.17
2022-08-05T07:25:55.229Z,27.97
2022-08-05T07:28:26.403Z,12.53
2022-08-05T07:30:56.431Z,17.70
2022-08-05T07:33:35.222Z,14.37
2022-08-05T07:36:20.814Z,12.80
2022-08-05T07:38:55.017Z,17.17
2022-08-05T07:42:13.252Z,15.10
2022-08-05T07:44:19.124Z,20.23
2022-08-05T07:46:51.726Z,12.93
2022-08-05T07:49:24.402Z,24.40
2022-08-05T07:51:55.347Z,20.57
2022-08-05T07:54:31.767Z,14.57
2022-08-05T07:57:22.579Z,16.97
2022-08-05T07:59:55.068Z,14.97
2022-08-05T08:02:30.803Z,16.53
2022-08-05T08:05:04.259Z,13.33
2022-08-05T08:07:39.459Z,15.10
2022-08-05T08:10:24.325Z,8.77
2022-08-05T08:12:58.494Z,13.27
2022-08-05T08:16:33.469Z,13.10
2022-08-05T08:18:21.025Z,8.73
2022-08-05T08:21:03.094Z,10.50
2022-08-05T08:24:01.457Z,11.10
2022-08-05T08:26:27.057Z,11.70
2022-08-05T08:29:02.243Z,10.93
2022-08-05T08:31:52.234Z,10.43
2022-08-05T08:34:30.157Z,12.03
2022-08-05T08:37:05.477Z,17.77
2022-08-05T08:39:37.607Z,9.20
2022-08-05T08:42:33.627Z,17.97
2022-08-05T08:45:25.162Z,9.13
2022-08-05T08:48:07.415Z,9.07
2022-08-05T08:51:03.334Z,10.47
2022-08-05T08:53:44.970Z,7.13
2022-08-05T08:56:15.228Z,7.87
2022-08-05T08:58:47.932Z,10.80
2022-08-05T09:01:19.669Z,12.47
2022-08-05T09:03:55.630Z,15.83
2022-08-05T09:06:30.907Z,11.60
2022-08-05T09:09:04.786Z,12.37
2022-08-05T09:11:53.760Z,8.60
2022-08-05T09:14:57.714Z,10.53
2022-08-05T09:17:40.891Z,7.90
2022-08-05T09:20:09.808Z,10.67
2022-08-05T09:23:19.810Z,10.73
2022-08-05T09:26:03.274Z,13.33
2022-08-05T09:28:35.926Z,10.07
2022-08-05T09:31:18.228Z,10.20
2022-08-05T09:34:01.804Z,13.80
2022-08-05T09:36:55.082Z,10.00
2022-08-05T09:39:44.971Z,9.90
2022-08-05T09:42:24.452Z,9.53
2022-08-05T09:45:17.260Z,20.10
2022-08-05T09:47:55.902Z,16.17
2022-08-05T09:50:44.086Z,13.40
2022-08-05T09:53:26.166Z,13.87
2022-08-05T09:56:13.402Z,12.87
2022-08-05T09:58:59.096Z,11.77
2022-08-05T10:01:32.578Z,16.20
2022-08-05T10:04:10.403Z,10.27
2022-08-05T10:06:55.059Z,10.23
2022-08-05T10:09:29.887Z,22.13
2022-08-05T10:12:30.530Z,15.17
2022-08-05T10:15:21.792Z,10.43
2022-08-05T10:18:16.926Z,19.27
2022-08-05T10:20:49.568Z,22.63
2022-08-05T10:23:55.591Z,20.20
2022-08-05T10:26:14.458Z,18.00
2022-08-05T10:28:46.582Z,15.43
2022-08-05T10:32:55.078Z,18.57
2022-08-05T10:34:10.804Z,19.50
2022-08-05T10:36:44.517Z,19.60
2022-08-05T10:39:25.170Z,23.00
2022-08-05T10:42:15.609Z,18.03
2022-08-05T10:44:49.594Z,15.80
2022-08-05T10:47:25.918Z,16.73
2022-08-05T10:50:20.268Z,15.20
2022-08-05T10:52:58.748Z,17.47
2022-08-05T10:56:03.832Z,17.63
2022-08-05T10:58:36.037Z,11.57
2022-08-05T11:01:15.129Z,19.50
2022-08-05T11:04:06.630Z,15.27
2022-08-05T11:06:39.077Z,13.83
2022-08-05T11:09:16.873Z,13.83
2022-08-05T11:11:52.725Z,14.63
2022-08-05T11:15:12.176Z,11.73
2022-08-05T11:18:07.343Z,13.87
2022-08-05T11:20:44.585Z,13.47
2022-08-05T11:24:03.783Z,14.43
2022-08-05T11:26:32.496Z,8.10
2022-08-05T11:29:13.805Z,12.60
2022-08-05T11:31:56.929Z,7.60
2022-08-05T11:34:51.393Z,9.53
2022-08-05T11:38:29.051Z,7.97
2022-08-05T11:41:35.103Z,6.87
2022-08-05T11:44:07.492Z,4.20
2022-08-05T11:47:10.224Z,4.17
2022-08-05T11:49:34.054Z,5.10
2022-08-05T11:52:11.084Z,5.30
2022-08-05T11:54:43.636Z,10.33
2022-08-05T11:57:25.467Z,5.23
2022-08-05T12:00:28.954Z,6.40
2022-08-05T12:03:01.089Z,3.53
2022-08-05T12:05:39.807Z,12.77
2022-08-05T12:08:11.748Z,6.27
2022-08-05T12:10:52.723Z,8.80
2022-08-05T12:13:48.048Z,4.97
2022-08-05T12:16:26.984Z,6.57
2022-08-05T12:18:57.249Z,6.17
2022-08-05T12:21:30.624Z,7.40
2022-08-05T12:24:04.855Z,7.43
2022-08-05T12:26:36.561Z,8.40
2022-08-05T12:29:15.883Z,4.17
2022-08-05T12:31:53.639Z,3.53
2022-08-05T12:34:28.443Z,5.53
2022-08-05T12:36:59.926Z,3.77
2022-08-05T12:39:34.470Z,5.20
2022-08-05T12:42:14.332Z,4.63
2022-08-05T12:44:48.625Z,4.97
2022-08-05T12:47:30.955Z,5.37
2022-08-05T12:50:06.231Z,3.40
2022-08-05T12:52:42.252Z,4.60
2022-08-05T12:55:23.619Z,6.30
2022-08-05T12:58:49.788Z,4.33
2022-08-05T13:02:02.287Z,5.30
2022-08-05T13:03:43.283Z,5.23
2022-08-05T13:06:19.954Z,4.97
2022-08-05T13:08:52.178Z,3.97
2022-08-05T13:11:46.969Z,5.40
2022-08-05T13:14:19.391Z,9.10
2022-08-05T13:16:56.420Z,9.67
2022-08-05T13:19:51.916Z,10.73
2022-08-05T13:22:29.277Z,3.60
2022-08-05T13:25:05.770Z,5.50
2022-08-05T13:27:41.513Z,4.57
2022-08-05T13:30:34.810Z,4.80
2022-08-05T13:33:06.545Z,4.20
2022-08-05T13:35:47.176Z,8.50
2022-08-05T13:38:30.296Z,3.43
2022-08-05T13:41:01.608Z,3.87
2022-08-05T13:43:45.446Z,5.93
2022-08-05T13:46:38.005Z,4.53
2022-08-05T13:49:16.039Z,3.70
2022-08-05T13:51:47.019Z,10.10
2022-08-05T13:54:21.178Z,5.60
2022-08-05T13:56:56.132Z,7.20
2022-08-05T13:59:27.001Z,10.30
2022-08-05T14:02:00.507Z,8.90
2022-08-05T14:04:50.085Z,6.27
2022-08-05T14:07:55.363Z,5.07
2022-08-05T14:10:18.849Z,4.30
2022-08-05T14:12:54.505Z,4.73
2022-08-05T14:16:06.161Z,6.90
2022-08-05T14:18:18.039Z,8.40
2022-08-05T14:20:52.921Z,5.70
2022-08-05T14:23:26.447Z,8.40
2022-08-05T14:25:59.723Z,5.77
2022-08-05T14:28:31.794Z,2.90
2022-08-05T14:31:02.496Z,8.43
2022-08-05T14:33:59.249Z,7.93
2022-08-05T14:36:26.101Z,6.20
2022-08-05T14:38:56.973Z,5.57
2022-08-05T14:41:27.641Z,4.90
2022-08-05T14:44:09.728Z,9.80
2022-08-05T14:46:48.814Z,3.80
2022-08-05T14:49:18.643Z,4.03
2022-08-05T14:51:52.208Z,9.30
2022-08-05T14:54:28.479Z,4.20
2022-08-05T14:57:05.124Z,6.53
2022-08-05T14:59:40.381Z,6.20
2022-08-05T15:02:15.748Z,3.70
2022-08-05T15:04:47.795Z,5.27
2022-08-05T15:08:11.432Z,9.80
2022-08-05T15:10:13.946Z,8.10
2022-08-05T15:13:00.350Z,6.33
2022-08-05T15:15:54.127Z,5.50
2022-08-05T15:18:25.098Z,3.13
2022-08-05T15:20:54.753Z,5.37
2022-08-05T15:23:27.044Z,3.37
2022-08-05T15:26:01.008Z,2.90
2022-08-05T15:28:32.777Z,7.60
2022-08-05T15:31:03.618Z,4.40
2022-08-05T15:34:05.867Z,6.30
2022-08-05T15:36:26.204Z,11.43
2022-08-05T15:40:58.793Z,4.30
2022-08-05T15:41:55.698Z,12.73
2022-08-05T15:44:27.602Z,9.60
2022-08-05T15:46:57.968Z,6.00
2022-08-05T15:49:48.298Z,5.27
2022-08-05T15:52:53.737Z,1.63
2022-08-05T15:55:16.616Z,3.20
2022-08-05T15:57:49.035Z,6.83
2022-08-05T16:00:26.443Z,5.13
2022-08-05T16:03:02.718Z,4.83
2022-08-05T16:05:32.984Z,4.73
2022-08-05T16:08:03.706Z,4.50
2022-08-05T16:10:37.479Z,8.70
2022-08-05T16:13:11.347Z,10.90
2022-08-05T16:15:41.128Z,5.10
2022-08-05T16:18:12.389Z,4.93
2022-08-05T16:20:44.133Z,3.27
2022-08-05T16:23:16.799Z,4.00
2022-08-05T16:25:49.913Z,5.63
2022-08-05T16:28:26.802Z,0.70
2022-08-05T16:30:58.647Z,8.13
2022-08-05T16:33:32.144Z,2.03
2022-08-05T16:36:13.145Z,1.53
2022-08-05T16:38:55.005Z,2.90
2022-08-05T16:42:27.781Z,2.10
2022-08-05T16:44:21.113Z,4.30
2022-08-05T16:46:56.337Z,2.70
2022-08-05T16:49:26.601Z,2.97
2022-08-05T16:51:59.035Z,1.57
2022-08-05T16:54:32.880Z,3.13
2022-08-05T16:57:14.873Z,2.40
2022-08-05T17:00:02.951Z,3.53
2022-08-05T17:02:38.470Z,1.57
2022-08-05T17:05:09.618Z,5.80
2022-08-05T17:07:44.380Z,6.87
2022-08-05T17:10:26.494Z,2.23
2022-08-05T17:13:02.823Z,2.30
2022-08-05T17:15:47.826Z,1.67
2022-08-05T17:18:19.168Z,3.60
2022-08-05T17:20:50.576Z,4.43
2022-08-05T17:24:05.229Z,3.40
2022-08-05T17:26:10.132Z,2.13
2022-08-05T17:28:44.112Z,1.53
2022-08-05T17:31:24.632Z,6.20
2022-08-05T17:34:06.912Z,3.17
2022-08-05T17:36:40.452Z,1.57
2022-08-05T17:39:24.494Z,2.80
2022-08-05T17:42:17.825Z,3.80
2022-08-05T17:44:53.866Z,6.03
2022-08-05T17:47:23.794Z,2.83
2022-08-05T17:50:03.650Z,2.77
2022-08-05T17:52:34.995Z,4.30
2022-08-05T17:55:27.208Z,3.37
2022-08-05T17:58:05.650Z,4.40
2022-08-05T18:00:40.911Z,8.53
2022-08-05T18:03:56.525Z,4.97
2022-08-05T18:06:11.863Z,1.63
2022-08-05T18:08:52.223Z,3.27
2022-08-05T18:11:32.873Z,2.10
2022-08-05T18:14:07.290Z,2.50
2022-08-05T18:16:51.293Z,1.90
2022-08-05T18:19:22.644Z,3.43
2022-08-05T18:22:08.226Z,1.97
2022-08-05T18:24:41.223Z,1.50
2022-08-05T18:27:12.325Z,2.50
2022-08-05T18:29:42.591Z,2.73
2022-08-05T18:32:28.353Z,5.50
2022-08-05T18:35:01.379Z,3.70
2022-08-05T18:37:34.592Z,4.20
2022-08-05T18:41:53.167Z,3.20
2022-08-05T18:43:03.857Z,3.37
2022-08-05T18:45:41.661Z,1.43
2022-08-05T18:48:30.906Z,2.57
2022-08-05T18:52:04.747Z,9.30
2022-08-05T18:54:09.728Z,2.63
2022-08-05T18:56:39.525Z,1.57
2022-08-05T18:59:41.858Z,2.50
2022-08-05T19:01:59.264Z,1.73
2022-08-05T19:04:37.457Z,2.07
2022-08-05T19:07:46.275Z,2.97
2022-08-05T19:10:18.949Z,3.00
2022-08-05T19:12:59.143Z,3.87
2022-08-05T19:15:57.036Z,10.67
2022-08-05T19:18:22.907Z,3.43
2022-08-05T19:20:56.538Z,2.07
2022-08-05T19:24:07.299Z,2.40
2022-08-05T19:26:22.485Z,3.10
2022-08-05T19:28:57.893Z,1.93
2022-08-05T19:31:30.825Z,1.53
2022-08-05T19:34:14.585Z,1.77
2022-08-05T19:36:51.307Z,2.77
2022-08-05T19:39:21.664Z,7.23
2022-08-05T19:42:07.671Z,2.30
2022-08-05T19:44:45.030Z,4.60
2022-08-05T19:47:16.649Z,5.10
2022-08-05T19:49:48.260Z,3.33
2022-08-05T19:52:31.043Z,6.93
2022-08-05T19:55:06.831Z,2.63
2022-08-05T19:58:06.734Z,2.40
2022-08-05T20:00:50.694Z,4.23
2022-08-05T20:03:24.031Z,2.30
2022-08-05T20:05:56.804Z,8.17
2022-08-05T20:08:31.316Z,3.50
2022-08-05T20:11:02.362Z,2.80
2022-08-05T20:13:58.291Z,2.27
2022-08-05T20:16:23.312Z,3.37
2022-08-05T20:18:55.223Z,2.17
2022-08-05T20:21:27.848Z,2.40
2022-08-05T20:24:06.680Z,2.33
2022-08-05T20:26:36.349Z,3.30
2022-08-05T20:29:07.783Z,2.90
2022-08-05T20:31:59.646Z,6.73
2022-08-05T20:34:29.851Z,4.37
2022-08-05T20:37:01.827Z,5.30
2022-08-05T20:39:36.374Z,10.90
2022-08-05T20:42:08.299Z,3.20
2022-08-05T20:44:41.531Z,1.67
2022-08-05T20:47:11.326Z,1.17
2022-08-05T20:49:41.096Z,2.83
2022-08-05T20:52:12.361Z,4.20
2022-08-05T20:55:15.988Z,1.93
2022-08-05T20:57:44.107Z,5.50
2022-08-05T21:00:40.030Z,4.60
2022-08-05T21:03:08.839Z,5.20
2022-08-05T21:05:54.412Z,1.57
2022-08-05T21:08:26.669Z,2.70
2022-08-05T21:11:10.315Z,3.33
2022-08-05T21:13:47.500Z,1.17
2022-08-05T21:16:30.153Z,3.50
2022-08-05T21:19:01.521Z,2.00
2022-08-05T21:21:39.078Z,2.53
2022-08-05T21:24:12.748Z,6.67
2022-08-05T21:26:57.983Z,2.63
2022-08-05T21:29:31.865Z,1.50
2022-08-05T21:32:03.091Z,2.50
2022-08-05T21:34:35.641Z,3.00
2022-08-05T21:37:08.226Z,3.20
2022-08-05T21:39:40.751Z,1.43
2022-08-05T21:42:43.802Z,3.50
2022-08-05T21:45:03.520Z,1.20
2022-08-05T21:47:56.348Z,2.20
2022-08-05T21:50:26.331Z,1.70
2022-08-05T21:52:58.819Z,1.73
2022-08-05T21:56:01.175Z,4.20
2022-08-05T21:58:24.888Z,3.07
2022-08-05T22:01:02.311Z,3.13
2022-08-05T22:03:48.588Z,1.43
2022-08-05T22:06:36.976Z,3.67
2022-08-05T22:09:14.025Z,3.23
2022-08-05T22:11:46.932Z,3.60
2022-08-05T22:14:34.667Z,9.53
2022-08-05T22:17:07.623Z,2.10
2022-08-05T22:20:00.696Z,2.97
2022-08-05T22:22:29.591Z,1.93
2022-08-05T22:25:17.807Z,7.43
2022-08-05T22:28:09.183Z,3.27
2022-08-05T22:30:56.693Z,2.97
2022-08-05T22:33:58.605Z,3.33
2022-08-05T22:36:18.714Z,3.33
2022-08-05T22:38:49.037Z,3.37
2022-08-05T22:42:05.401Z,9.50
2022-08-05T22:44:11.985Z,5.13
2022-08-05T22:46:45.182Z,2.13
2022-08-05T22:49:45.973Z,8.77
2022-08-05T22:52:12.529Z,3.23
2022-08-05T22:54:50.882Z,6.20
2022-08-05T22:57:20.576Z,4.67
2022-08-05T22:59:53.834Z,1.50
2022-08-05T23:02:29.363Z,3.00
2022-08-05T23:05:02.039Z,2.27
2022-08-05T23:07:44.709Z,3.53
2022-08-05T23:10:19.601Z,13.60
2022-08-05T23:12:51.629Z,2.30
2022-08-05T23:15:26.695Z,1.27
2022-08-05T23:18:00.970Z,3.73
2022-08-05T23:20:33.041Z,1.70
2022-08-05T23:23:06.020Z,3.03
2022-08-05T23:25:52.569Z,7.70
2022-08-05T23:28:28.685Z,1.10
2022-08-05T23:31:07.042Z,1.97
2022-08-05T23:34:03.805Z,3.50
2022-08-05T23:36:39.530Z,4.23
2022-08-05T23:39:17.500Z,5.70
2022-08-05T23:41:53.930Z,5.43
2022-08-05T23:44:28.010Z,2.80
2022-08-05T23:47:02.660Z,3.60
2022-08-05T23:49:47.465Z,1.20
2022-08-05T23:52:32.395Z,2.17
2022-08-05T23:55:09.229Z,3.43
2022-08-05T23:57:40.635Z,2.10
